sensor_id;sensor_type;location;lat;lon;timestamp;P1;durP1;ratioP1;P2;durP2;ratioP2
49820;SDS011;36893;52.520;13.450;2022-07-06T00:09:36;5.20;;;0.63;;
49820;SDS011;36893;52.520;13.450;2022-07-06T00:19:37;0.57;;;0.40;;
49820;SDS011;36893;52.520;13.450;2022-07-06T00:29:38;1.00;;;0.67;;
49820;SDS011;36893;52.520;13.450;2022-07-06T00:39:43;0.40;;;0.40;;
49820;SDS011;36893;52.520;13.450;2022-07-06T00:49:44;1.70;;;0.50;;
49820;SDS011;36893;52.520;13.450;2022-07-06T01:00:03;0.35;;;0.35;;
49820;SDS011;36893;52.520;13.450;2022-07-06T01:30:14;3.50;;;0.52;;
49820;SDS011;36893;52.520;13.450;2022-07-06T01:40:16;0.38;;;0.38;;
49820;SDS011;36893;52.520;13.450;2022-07-06T01:50:17;4.23;;;0.80;;
49820;SDS011;36893;52.520;13.450;2022-07-06T02:00:17;1.50;;;0.50;;
49820;SDS011;36893;52.520;13.450;2022-07-06T02:10:18;2.03;;;0.63;;
49820;SDS011;36893;52.520;13.450;2022-07-06T02:20:19;0.77;;;0.50;;
49820;SDS011;36893;52.520;13.450;2022-07-06T02:30:20;2.13;;;0.60;;
49820;SDS011;36893;52.520;13.450;2022-07-06T02:40:20;1.30;;;0.80;;
49820;SDS011;36893;52.520;13.450;2022-07-06T02:50:21;1.53;;;0.80;;
49820;SDS011;36893;52.520;13.450;2022-07-06T03:00:22;2.40;;;0.70;;
49820;SDS011;36893;52.520;13.450;2022-07-06T03:10:22;2.25;;;0.90;;
49820;SDS011;36893;52.520;13.450;2022-07-06T03:20:23;1.23;;;0.53;;
49820;SDS011;36893;52.520;13.450;2022-07-06T03:30:24;1.17;;;0.63;;
49820;SDS011;36893;52.520;13.450;2022-07-06T03:40:24;4.83;;;0.80;;
49820;SDS011;36893;52.520;13.450;2022-07-06T03:50:25;3.00;;;0.80;;
49820;SDS011;36893;52.520;13.450;2022-07-06T04:00:26;3.20;;;0.87;;
49820;SDS011;36893;52.520;13.450;2022-07-06T04:10:26;0.90;;;0.60;;
49820;SDS011;36893;52.520;13.450;2022-07-06T04:20:27;1.30;;;0.60;;
49820;SDS011;36893;52.520;13.450;2022-07-06T04:30:28;0.40;;;0.40;;
49820;SDS011;36893;52.520;13.450;2022-07-06T04:40:28;0.30;;;0.30;;
49820;SDS011;36893;52.520;13.450;2022-07-06T04:50:29;2.27;;;0.73;;
49820;SDS011;36893;52.520;13.450;2022-07-06T05:00:30;3.50;;;0.57;;
49820;SDS011;36893;52.520;13.450;2022-07-06T05:10:31;1.23;;;0.70;;
49820;SDS011;36893;52.520;13.450;2022-07-06T05:20:31;3.53;;;0.87;;
49820;SDS011;36893;52.520;13.450;2022-07-06T05:30:32;1.70;;;0.73;;
49820;SDS011;36893;52.520;13.450;2022-07-06T05:40:33;12.17;;;5.03;;
49820;SDS011;36893;52.520;13.450;2022-07-06T05:50:33;7.80;;;2.63;;
49820;SDS011;36893;52.520;13.450;2022-07-06T06:00:34;4.80;;;2.17;;
49820;SDS011;36893;52.520;13.450;2022-07-06T06:10:35;6.40;;;1.55;;
49820;SDS011;36893;52.520;13.450;2022-07-06T06:20:35;5.70;;;1.83;;
49820;SDS011;36893;52.520;13.450;2022-07-06T06:30:36;3.20;;;1.30;;
49820;SDS011;36893;52.520;13.450;2022-07-06T06:40:38;3.97;;;1.33;;
49820;SDS011;36893;52.520;13.450;2022-07-06T06:50:39;6.43;;;1.27;;
49820;SDS011;36893;52.520;13.450;2022-07-06T07:00:40;3.90;;;1.27;;
49820;SDS011;36893;52.520;13.450;2022-07-06T07:10:40;1.93;;;0.80;;
49820;SDS011;36893;52.520;13.450;2022-07-06T07:20:41;2.77;;;1.33;;
49820;SDS011;36893;52.520;13.450;2022-07-06T07:30:42;3.80;;;0.87;;
49820;SDS011;36893;52.520;13.450;2022-07-06T07:40:42;2.47;;;0.90;;
49820;SDS011;36893;52.520;13.450;2022-07-06T07:50:43;2.03;;;0.67;;
49820;SDS011;36893;52.520;13.450;2022-07-06T08:00:44;0.67;;;0.50;;
49820;SDS011;36893;52.520;13.450;2022-07-06T08:10:45;0.77;;;0.50;;
49820;SDS011;36893;52.520;13.450;2022-07-06T08:20:46;5.72;;;0.80;;
49820;SDS011;36893;52.520;13.450;2022-07-06T08:30:46;4.37;;;1.03;;
49820;SDS011;36893;52.520;13.450;2022-07-06T08:40:48;1.47;;;0.53;;
49820;SDS011;36893;52.520;13.450;2022-07-06T08:50:50;2.30;;;0.93;;
49820;SDS011;36893;52.520;13.450;2022-07-06T09:00:50;2.20;;;0.60;;
49820;SDS011;36893;52.520;13.450;2022-07-06T09:10:52;0.80;;;0.47;;
49820;SDS011;36893;52.520;13.450;2022-07-06T09:20:53;4.32;;;0.40;;
49820;SDS011;36893;52.520;13.450;2022-07-06T09:30:54;2.77;;;0.50;;
49820;SDS011;36893;52.520;13.450;2022-07-06T09:40:55;4.35;;;0.70;;
49820;SDS011;36893;52.520;13.450;2022-07-06T09:50:57;1.03;;;0.60;;
49820;SDS011;36893;52.520;13.450;2022-07-06T10:01:02;1.05;;;0.25;;
49820;SDS011;36893;52.520;13.450;2022-07-06T10:11:03;2.03;;;0.40;;
49820;SDS011;36893;52.520;13.450;2022-07-06T10:21:04;0.57;;;0.30;;
49820;SDS011;36893;52.520;13.450;2022-07-06T10:31:04;1.23;;;0.40;;
49820;SDS011;36893;52.520;13.450;2022-07-06T10:41:07;0.70;;;0.30;;
49820;SDS011;36893;52.520;13.450;2022-07-06T10:51:13;0.85;;;0.22;;
49820;SDS011;36893;52.520;13.450;2022-07-06T11:01:28;1.98;;;0.30;;
49820;SDS011;36893;52.520;13.450;2022-07-06T11:21:34;3.05;;;0.45;;
49820;SDS011;36893;52.520;13.450;2022-07-06T11:31:59;0.43;;;0.30;;
49820;SDS011;36893;52.520;13.450;2022-07-06T11:42:03;1.23;;;0.20;;
49820;SDS011;36893;52.520;13.450;2022-07-06T11:52:05;1.05;;;0.30;;
49820;SDS011;36893;52.520;13.450;2022-07-06T12:02:11;0.30;;;0.15;;
49820;SDS011;36893;52.520;13.450;2022-07-06T12:12:15;1.65;;;0.20;;
49820;SDS011;36893;52.520;13.450;2022-07-06T12:22:23;0.43;;;0.20;;
49820;SDS011;36893;52.520;13.450;2022-07-06T12:32:25;0.25;;;0.20;;
49820;SDS011;36893;52.520;13.450;2022-07-06T12:42:26;0.82;;;0.25;;
49820;SDS011;36893;52.520;13.450;2022-07-06T12:52:28;0.20;;;0.20;;
49820;SDS011;36893;52.520;13.450;2022-07-06T13:02:34;1.07;;;0.20;;
49820;SDS011;36893;52.520;13.450;2022-07-06T13:12:37;0.95;;;0.30;;
49820;SDS011;36893;52.520;13.450;2022-07-06T13:22:38;0.93;;;0.45;;
49820;SDS011;36893;52.520;13.450;2022-07-06T13:32:39;1.08;;;0.47;;
49820;SDS011;36893;52.520;13.450;2022-07-06T13:42:40;1.87;;;0.27;;
49820;SDS011;36893;52.520;13.450;2022-07-06T13:52:40;0.30;;;0.20;;
49820;SDS011;36893;52.520;13.450;2022-07-06T14:02:41;1.30;;;0.33;;
49820;SDS011;36893;52.520;13.450;2022-07-06T14:12:42;0.60;;;0.30;;
49820;SDS011;36893;52.520;13.450;2022-07-06T14:22:43;1.00;;;0.22;;
49820;SDS011;36893;52.520;13.450;2022-07-06T14:32:43;0.77;;;0.33;;
49820;SDS011;36893;52.520;13.450;2022-07-06T14:42:44;1.93;;;0.37;;
49820;SDS011;36893;52.520;13.450;2022-07-06T14:52:44;0.43;;;0.20;;
49820;SDS011;36893;52.520;13.450;2022-07-06T15:02:45;0.55;;;0.30;;
49820;SDS011;36893;52.520;13.450;2022-07-06T15:12:46;2.60;;;0.87;;
49820;SDS011;36893;52.520;13.450;2022-07-06T15:22:47;0.98;;;0.40;;
49820;SDS011;36893;52.520;13.450;2022-07-06T15:32:48;1.20;;;0.30;;
49820;SDS011;36893;52.520;13.450;2022-07-06T15:42:49;0.50;;;0.40;;
49820;SDS011;36893;52.520;13.450;2022-07-06T15:52:54;1.25;;;0.40;;
49820;SDS011;36893;52.520;13.450;2022-07-06T16:02:55;1.10;;;0.37;;
49820;SDS011;36893;52.520;13.450;2022-07-06T16:12:56;2.23;;;0.43;;
49820;SDS011;36893;52.520;13.450;2022-07-06T16:22:57;0.22;;;0.20;;
49820;SDS011;36893;52.520;13.450;2022-07-06T16:32:57;0.23;;;0.23;;
49820;SDS011;36893;52.520;13.450;2022-07-06T16:42:58;0.30;;;0.20;;
49820;SDS011;36893;52.520;13.450;2022-07-06T16:52:59;0.88;;;0.35;;
49820;SDS011;36893;52.520;13.450;2022-07-06T17:03:00;0.33;;;0.30;;
49820;SDS011;36893;52.520;13.450;2022-07-06T17:13:01;0.95;;;0.28;;
49820;SDS011;36893;52.520;13.450;2022-07-06T17:23:01;0.10;;;0.10;;
49820;SDS011;36893;52.520;13.450;2022-07-06T17:33:03;0.13;;;0.13;;
49820;SDS011;36893;52.520;13.450;2022-07-06T17:43:03;0.05;;;0.05;;
49820;SDS011;36893;52.520;13.450;2022-07-06T17:53:04;0.28;;;0.20;;
49820;SDS011;36893;52.520;13.450;2022-07-06T18:03:05;0.25;;;0.20;;
49820;SDS011;36893;52.520;13.450;2022-07-06T18:13:07;4.28;;;0.30;;
49820;SDS011;36893;52.520;13.450;2022-07-06T18:23:07;1.53;;;0.23;;
49820;SDS011;36893;52.520;13.450;2022-07-06T18:33:08;1.43;;;0.20;;
49820;SDS011;36893;52.520;13.450;2022-07-06T18:43:08;0.97;;;0.30;;
49820;SDS011;36893;52.520;13.450;2022-07-06T18:53:10;0.30;;;0.30;;
49820;SDS011;36893;52.520;13.450;2022-07-06T19:03:15;0.55;;;0.30;;
49820;SDS011;36893;52.520;13.450;2022-07-06T19:13:16;0.67;;;0.33;;
49820;SDS011;36893;52.520;13.450;2022-07-06T19:23:16;1.83;;;0.35;;
49820;SDS011;36893;52.520;13.450;2022-07-06T19:43:19;0.22;;;0.22;;
49820;SDS011;36893;52.520;13.450;2022-07-06T19:53:20;0.60;;;0.30;;
49820;SDS011;36893;52.520;13.450;2022-07-06T20:03:24;1.50;;;0.40;;
49820;SDS011;36893;52.520;13.450;2022-07-06T20:13:25;0.57;;;0.20;;
49820;SDS011;36893;52.520;13.450;2022-07-06T20:23:26;1.17;;;0.38;;
49820;SDS011;36893;52.520;13.450;2022-07-06T20:33:27;0.70;;;0.38;;
49820;SDS011;36893;52.520;13.450;2022-07-06T20:43:27;0.60;;;0.43;;
49820;SDS011;36893;52.520;13.450;2022-07-06T20:53:28;0.55;;;0.38;;
49820;SDS011;36893;52.520;13.450;2022-07-06T21:03:29;0.27;;;0.23;;
49820;SDS011;36893;52.520;13.450;2022-07-06T21:13:30;0.80;;;0.35;;
49820;SDS011;36893;52.520;13.450;2022-07-06T21:23:31;1.17;;;0.40;;
49820;SDS011;36893;52.520;13.450;2022-07-06T21:33:35;0.90;;;0.40;;
49820;SDS011;36893;52.520;13.450;2022-07-06T21:43:35;2.13;;;0.63;;
49820;SDS011;36893;52.520;13.450;2022-07-06T21:53:36;2.07;;;0.70;;
49820;SDS011;36893;52.520;13.450;2022-07-06T22:03:37;0.97;;;0.50;;
49820;SDS011;36893;52.520;13.450;2022-07-06T22:13:38;1.90;;;0.70;;
49820;SDS011;36893;52.520;13.450;2022-07-06T22:23:42;2.30;;;0.90;;
49820;SDS011;36893;52.520;13.450;2022-07-06T22:33:43;1.83;;;0.90;;
49820;SDS011;36893;52.520;13.450;2022-07-06T22:43:44;1.90;;;1.00;;
49820;SDS011;36893;52.520;13.450;2022-07-06T22:53:45;4.68;;;1.25;;
49820;SDS011;36893;52.520;13.450;2022-07-06T23:03:46;1.93;;;0.83;;
49820;SDS011;36893;52.520;13.450;2022-07-06T23:13:51;3.13;;;1.20;;
49820;SDS011;36893;52.520;13.450;2022-07-06T23:23:52;0.97;;;0.53;;
49820;SDS011;36893;52.520;13.450;2022-07-06T23:33:52;1.20;;;0.40;;
49820;SDS011;36893;52.520;13.450;2022-07-06T23:43:53;2.33;;;0.70;;
49820;SDS011;36893;52.520;13.450;2022-07-06T23:53:54;1.17;;;0.67;;
